createdAt,value
2022-10-01T00:01:02.864Z,12.41
2022-10-01T00:03:44.360Z,12.62
2022-10-01T00:06:29.613Z,12.52
2022-10-01T00:09:12.070Z,12.47
2022-10-01T00:11:50.148Z,12.71
2022-10-01T00:14:37.804Z,12.58
2022-10-01T00:17:26.869Z,12.43
2022-10-01T00:20:14.139Z,12.68
2022-10-01T00:22:53.004Z,12.51
2022-10-01T00:25:37.579Z,12.57
2022-10-01T00:28:12.226Z,12.53
2022-10-01T00:30:49.453Z,12.35
2022-10-01T00:33:22.182Z,12.66
2022-10-01T00:35:57.045Z,12.33
2022-10-01T00:38:29.232Z,12.48
2022-10-01T00:40:59.779Z,12.39
2022-10-01T00:43:32.252Z,12.58
2022-10-01T00:46:06.311Z,12.60
2022-10-01T00:48:48.826Z,12.50
2022-10-01T00:51:21.182Z,12.62
2022-10-01T00:53:51.739Z,12.60
2022-10-01T00:56:28.518Z,12.47
2022-10-01T00:58:59.056Z,12.51
2022-10-01T01:01:32.679Z,12.48
2022-10-01T01:04:16.300Z,12.43
2022-10-01T01:06:51.704Z,12.44
2022-10-01T01:09:27.162Z,12.35
2022-10-01T01:12:08.614Z,12.32
2022-10-01T01:14:44.543Z,12.15
2022-10-01T01:17:21.457Z,12.18
2022-10-01T01:20:23.172Z,11.94
2022-10-01T01:23:03.003Z,12.15
2022-10-01T01:25:43.576Z,12.09
2022-10-01T01:28:25.683Z,11.99
2022-10-01T01:31:01.088Z,11.80
2022-10-01T01:33:35.338Z,12.00
2022-10-01T01:36:10.405Z,11.87
2022-10-01T01:38:49.274Z,11.77
2022-10-01T01:41:22.972Z,11.60
2022-10-01T01:44:03.309Z,11.39
2022-10-01T01:46:37.772Z,11.26
2022-10-01T01:49:10.208Z,10.77
2022-10-01T01:51:46.474Z,11.00
2022-10-01T01:54:19.940Z,10.85
2022-10-01T01:56:56.107Z,10.76
2022-10-01T01:59:34.033Z,10.84
2022-10-01T02:02:11.281Z,10.90
2022-10-01T02:04:54.764Z,10.85
2022-10-01T02:07:40.504Z,10.74
2022-10-01T02:10:22.828Z,11.11
2022-10-01T02:13:11.932Z,11.06
2022-10-01T02:15:56.151Z,11.07
2022-10-01T02:18:37.026Z,11.00
2022-10-01T02:21:15.032Z,11.07
2022-10-01T02:23:51.959Z,11.23
2022-10-01T02:26:30.143Z,11.19
2022-10-01T02:29:05.132Z,11.21
2022-10-01T02:31:39.167Z,10.60
2022-10-01T02:34:19.947Z,10.82
2022-10-01T02:40:00.315Z,10.82
2022-10-01T02:42:33.666Z,10.98
2022-10-01T02:45:07.578Z,10.99
2022-10-01T02:47:47.379Z,10.97
2022-10-01T02:50:18.304Z,10.98
2022-10-01T02:53:01.567Z,10.71
2022-10-01T02:55:36.187Z,10.57
2022-10-01T02:58:04.366Z,10.71
2022-10-01T03:00:43.523Z,10.82
2022-10-01T03:03:18.195Z,10.47
2022-10-01T03:05:50.186Z,10.41
2022-10-01T03:08:24.395Z,10.47
2022-10-01T03:10:55.738Z,10.49
2022-10-01T03:13:27.231Z,10.54
2022-10-01T03:15:57.690Z,10.36
2022-10-01T03:18:31.671Z,10.49
2022-10-01T03:21:01.850Z,10.45
2022-10-01T03:23:32.971Z,10.40
2022-10-01T03:26:03.773Z,10.45
2022-10-01T03:28:34.804Z,10.49
2022-10-01T03:31:13.121Z,10.56
2022-10-01T03:33:46.824Z,10.45
2022-10-01T03:36:17.093Z,10.47
2022-10-01T03:38:48.149Z,10.31
2022-10-01T03:41:24.268Z,10.38
2022-10-01T03:44:00.688Z,10.07
2022-10-01T03:46:36.930Z,10.17
2022-10-01T03:49:17.984Z,10.09
2022-10-01T03:51:48.909Z,10.04
2022-10-01T03:54:20.413Z,10.03
2022-10-01T03:56:55.289Z,10.28
2022-10-01T03:59:28.536Z,10.22
2022-10-01T04:01:59.969Z,10.37
2022-10-01T04:04:33.676Z,10.08
2022-10-01T04:07:04.702Z,10.22
2022-10-01T04:09:37.739Z,10.14
2022-10-01T04:12:08.165Z,10.26
2022-10-01T04:14:39.105Z,10.20
2022-10-01T04:17:12.764Z,10.18
2022-10-01T04:19:46.112Z,10.22
2022-10-01T04:22:16.783Z,10.31
2022-10-01T04:24:54.148Z,10.26
2022-10-01T04:27:28.207Z,10.33
2022-10-01T04:29:59.287Z,10.44
2022-10-01T04:32:29.608Z,10.44
2022-10-01T04:35:04.531Z,10.08
2022-10-01T04:37:35.016Z,10.19
2022-10-01T04:40:05.870Z,10.15
2022-10-01T04:42:35.949Z,10.20
2022-10-01T04:45:07.756Z,10.02
2022-10-01T04:47:40.740Z,10.02
2022-10-01T04:50:14.900Z,10.06
2022-10-01T04:52:46.093Z,10.09
2022-10-01T04:55:18.812Z,10.03
2022-10-01T04:57:57.022Z,10.04
2022-10-01T05:00:28.228Z,9.99
2022-10-01T05:03:00.570Z,9.91
2022-10-01T05:05:35.180Z,9.96
2022-10-01T05:08:06.593Z,10.13
2022-10-01T05:10:37.536Z,10.05
2022-10-01T05:13:08.080Z,10.15
2022-10-01T05:15:46.954Z,9.85
2022-10-01T05:18:24.400Z,9.87
2022-10-01T05:21:15.791Z,9.82
2022-10-01T05:23:50.122Z,9.75
2022-10-01T05:29:19.082Z,9.79
2022-10-01T05:31:50.442Z,9.85
2022-10-01T05:34:23.016Z,9.85
2022-10-01T05:43:40.784Z,9.83
2022-10-01T05:57:08.376Z,9.84
2022-10-01T05:59:54.282Z,9.82
2022-10-01T06:02:52.561Z,9.87
2022-10-01T06:05:29.214Z,10.14
2022-10-01T06:08:11.906Z,10.25
2022-10-01T06:11:34.891Z,10.17
2022-10-01T06:14:10.176Z,10.02
2022-10-01T06:16:54.077Z,10.04
2022-10-01T06:19:49.305Z,10.06
2022-10-01T06:23:24.642Z,10.06
2022-10-01T06:43:36.173Z,10.12
2022-10-01T06:49:47.845Z,10.12
2022-10-01T06:52:36.320Z,9.98
2022-10-01T06:55:16.468Z,10.30
2022-10-01T06:58:11.019Z,10.45
2022-10-01T07:00:41.786Z,10.43
2022-10-01T07:03:19.856Z,10.38
2022-10-01T07:06:13.202Z,10.29
2022-10-01T07:08:46.440Z,10.26
2022-10-01T07:11:28.672Z,10.32
2022-10-01T07:14:25.265Z,10.59
2022-10-01T07:16:55.677Z,10.59
2022-10-01T07:19:28.525Z,10.45
2022-10-01T07:21:58.720Z,10.49
2022-10-01T07:24:29.283Z,10.57
2022-10-01T07:27:01.661Z,10.56
2022-10-01T07:29:35.464Z,10.57
2022-10-01T07:32:10.788Z,10.37
2022-10-01T07:35:11.737Z,10.60
2022-10-01T07:38:27.820Z,10.60
2022-10-01T07:40:59.134Z,10.67
2022-10-01T07:43:29.446Z,10.50
2022-10-01T07:46:02.922Z,10.76
2022-10-01T07:48:33.124Z,10.71
2022-10-01T07:51:07.045Z,10.70
2022-10-01T07:53:37.317Z,10.86
2022-10-01T07:56:10.971Z,10.76
2022-10-01T07:58:41.276Z,10.82
2022-10-01T08:01:12.581Z,10.90
2022-10-01T08:04:40.473Z,10.87
2022-10-01T08:07:37.785Z,11.14
2022-10-01T08:10:32.348Z,11.16
2022-10-01T08:14:18.952Z,11.22
2022-10-01T08:16:50.164Z,11.36
2022-10-01T08:19:20.606Z,11.30
2022-10-01T08:21:52.747Z,11.31
2022-10-01T08:24:25.690Z,11.29
2022-10-01T08:26:57.827Z,11.51
2022-10-01T08:29:27.746Z,11.58
2022-10-01T08:31:58.645Z,11.56
2022-10-01T08:34:28.481Z,11.52
2022-10-01T08:36:58.631Z,11.38
2022-10-01T08:39:31.008Z,11.52
2022-10-01T08:42:09.969Z,11.37
2022-10-01T08:44:43.661Z,11.41
2022-10-01T08:47:18.960Z,11.47
2022-10-01T08:49:54.066Z,11.58
2022-10-01T08:52:27.707Z,11.48
2022-10-01T08:55:04.437Z,11.72
2022-10-01T08:57:42.119Z,11.64
2022-10-01T09:00:16.944Z,11.72
2022-10-01T09:02:48.777Z,11.90
2022-10-01T09:05:26.412Z,11.89
2022-10-01T09:08:11.461Z,11.92
2022-10-01T09:10:50.803Z,11.94
2022-10-01T09:13:36.060Z,12.00
2022-10-01T09:16:18.697Z,12.06
2022-10-01T09:19:12.843Z,12.15
2022-10-01T09:29:27.434Z,12.30
2022-10-01T09:35:37.065Z,12.49
2022-10-01T09:38:51.554Z,12.36
2022-10-01T09:41:23.289Z,12.34
2022-10-01T09:43:54.005Z,12.08
2022-10-01T09:54:13.339Z,12.12
2022-10-01T10:04:23.572Z,11.93
2022-10-01T10:06:54.514Z,11.93
2022-10-01T10:10:22.183Z,12.09
2022-10-01T10:13:07.118Z,12.04
2022-10-01T10:15:53.005Z,12.05
2022-10-01T10:18:34.884Z,11.92
2022-10-01T10:21:09.292Z,11.82
2022-10-01T10:24:02.109Z,11.78
2022-10-01T10:30:46.407Z,11.50
2022-10-01T10:37:26.309Z,11.06
2022-10-01T10:40:29.094Z,11.03
2022-10-01T10:44:07.372Z,11.11
2022-10-01T10:47:42.559Z,10.99
2022-10-01T10:50:42.016Z,10.76
2022-10-01T10:54:13.712Z,10.97
2022-10-01T10:57:00.720Z,10.77
2022-10-01T10:59:59.758Z,10.80
2022-10-01T11:02:47.326Z,10.86
2022-10-01T11:05:58.812Z,10.68
2022-10-01T11:08:45.050Z,10.58
2022-10-01T11:11:53.066Z,10.60
2022-10-01T11:15:01.698Z,10.55
2022-10-01T11:18:23.895Z,10.46
2022-10-01T11:25:43.938Z,10.51
2022-10-01T11:28:46.283Z,10.57
2022-10-01T11:32:02.901Z,10.89
2022-10-01T11:34:54.490Z,10.85
2022-10-01T11:37:45.019Z,10.63
2022-10-01T11:41:03.344Z,10.78
2022-10-01T11:43:47.104Z,10.74
2022-10-01T11:46:30.197Z,10.72
2022-10-01T11:49:07.482Z,10.69
2022-10-01T11:51:55.847Z,10.69
2022-10-01T11:54:34.967Z,10.79
2022-10-01T11:57:30.935Z,10.85
2022-10-01T12:00:12.465Z,10.94
2022-10-01T12:18:10.944Z,10.80
2022-10-01T12:21:05.601Z,10.97
2022-10-01T12:24:09.780Z,10.81
2022-10-01T12:27:15.775Z,10.85
2022-10-01T12:30:01.578Z,10.79
2022-10-01T12:33:17.715Z,10.91
2022-10-01T12:36:09.944Z,10.74
2022-10-01T12:39:16.043Z,10.67
2022-10-01T12:42:06.526Z,10.63
2022-10-01T12:45:29.286Z,10.58
2022-10-01T12:51:46.540Z,10.73
2022-10-01T12:54:37.904Z,10.79
2022-10-01T13:00:22.886Z,10.64
2022-10-01T13:03:25.940Z,10.63
2022-10-01T13:06:16.129Z,10.64
2022-10-01T13:09:17.043Z,10.72
2022-10-01T13:12:52.207Z,10.69
2022-10-01T13:16:13.542Z,10.82
2022-10-01T13:19:25.921Z,10.94
2022-10-01T13:22:13.262Z,10.93
2022-10-01T13:25:09.272Z,11.07
2022-10-01T13:31:27.677Z,11.00
2022-10-01T15:09:40.246Z,12.27
2022-10-01T15:29:28.834Z,12.48
2022-10-01T15:32:52.669Z,12.60
2022-10-01T15:35:26.765Z,12.31
2022-10-01T15:38:15.004Z,12.43
2022-10-01T15:41:30.940Z,12.69
2022-10-01T15:44:46.206Z,12.61
2022-10-01T15:47:40.711Z,12.34
2022-10-01T15:50:26.504Z,12.50
2022-10-01T15:53:28.945Z,12.47
2022-10-01T15:56:03.158Z,12.48
2022-10-01T15:58:39.484Z,12.61
2022-10-01T16:01:22.426Z,12.88
2022-10-01T16:04:07.298Z,12.98
2022-10-01T16:06:48.405Z,12.87
2022-10-01T16:09:25.704Z,12.98
2022-10-01T16:12:11.601Z,13.00
2022-10-01T16:14:54.158Z,12.96
2022-10-01T16:24:53.419Z,12.84
2022-10-01T16:27:26.504Z,13.02
2022-10-01T16:30:04.744Z,13.10
2022-10-01T16:32:36.507Z,13.08
2022-10-01T16:35:28.333Z,13.00
2022-10-01T16:38:00.614Z,13.02
2022-10-01T16:40:36.851Z,13.03
2022-10-01T17:23:53.497Z,12.89
2022-10-01T17:27:16.018Z,12.84
2022-10-01T17:30:37.858Z,12.83
2022-10-01T17:34:15.596Z,12.73
2022-10-01T17:37:08.021Z,12.72
2022-10-01T17:39:43.434Z,12.56
2022-10-01T17:42:18.634Z,12.57
2022-10-01T17:44:58.996Z,12.49
2022-10-01T17:47:30.913Z,12.43
2022-10-01T17:50:12.415Z,12.35
2022-10-01T17:52:44.565Z,12.36
2022-10-01T17:59:42.288Z,12.73
2022-10-01T18:02:50.276Z,12.76
2022-10-01T18:05:36.998Z,12.49
2022-10-01T18:08:29.556Z,12.50
2022-10-01T18:11:31.411Z,12.41
2022-10-01T18:14:08.500Z,12.46
2022-10-01T18:16:42.365Z,12.63
2022-10-01T18:22:13.653Z,12.42
2022-10-01T18:24:45.819Z,12.36
2022-10-01T18:27:23.044Z,12.44
2022-10-01T18:29:53.737Z,12.39
2022-10-01T18:37:48.381Z,12.33
2022-10-01T18:41:28.773Z,12.28
2022-10-01T18:48:35.722Z,12.24
2022-10-01T19:13:19.903Z,12.15
2022-10-01T19:16:41.676Z,12.23
2022-10-01T19:20:49.953Z,12.34
2022-10-01T19:37:00.712Z,12.30
2022-10-01T19:49:13.455Z,12.18
2022-10-01T19:52:02.534Z,12.15
2022-10-01T19:55:26.489Z,12.26
2022-10-01T21:11:30.217Z,11.48
2022-10-01T21:22:42.535Z,11.29
2022-10-01T21:26:21.221Z,11.32
2022-10-01T21:30:32.504Z,11.34
2022-10-01T21:33:39.683Z,11.47
2022-10-01T21:53:49.168Z,11.32
2022-10-01T21:57:22.954Z,11.16
2022-10-01T22:01:23.525Z,11.25
2022-10-01T22:03:51.523Z,11.42
2022-10-01T22:07:23.341Z,11.20
2022-10-01T22:10:43.768Z,11.37
2022-10-01T22:18:22.988Z,11.05
2022-10-01T22:24:57.609Z,11.17
2022-10-01T22:28:02.489Z,11.16
2022-10-01T22:56:08.130Z,11.06
2022-10-01T22:59:51.764Z,11.04
2022-10-01T23:28:33.486Z,11.64
2022-10-01T23:31:49.453Z,11.41
2022-10-01T23:35:30.286Z,11.07
2022-10-01T23:44:01.223Z,10.89
2022-10-01T23:47:29.957Z,11.05
2022-10-01T23:50:52.289Z,11.01
2022-10-01T23:53:58.532Z,11.14
